Time;durP1;ratioP1;P1;durP2;ratioP2;P2;SDS_P1;SDS_P2;PMS_P1;PMS_P2;Temp;Humidity;BMP_temperature;BMP_pressure;BME280_temperature;BME280_humidity;BME280_pressure;Samples;Min_cycle;Max_cycle;Signal;HPM_P1;HPM_P2
2023/09/19 00:00:58;;;;;;;5.43;3.53;;;;;;;;;;5014195;28;20213;-51
2023/09/19 00:03:25;;;;;;;5.00;3.77;;;;;;;;;;5014583;28;20609;-50
2023/09/19 00:05:51;;;;;;;5.67;3.90;;;;;;;;;;5014524;28;20699;-51
2023/09/19 00:08:22;;;;;;;4.63;4.03;;;;;;;;;;5014882;28;20201;-51
2023/09/19 00:10:48;;;;;;;5.43;3.93;;;;;;;;;;5014838;28;20225;-51
2023/09/19 00:13:14;;;;;;;5.57;3.93;;;;;;;;;;5014197;28;20620;-51
2023/09/19 00:15:41;;;;;;;5.07;4.53;;;;;;;;;;5014360;28;20190;-51
2023/09/19 00:18:08;;;;;;;5.53;4.77;;;;;;;;;;5014286;28;20209;-50
2023/09/19 00:20:37;;;;;;;6.00;5.00;;;;;;;;;;5012053;28;20332;-52
2023/09/19 00:23:08;;;;;;;8.27;5.17;;;;;;;;;;5012821;28;20202;-53
2023/09/19 00:25:35;;;;;;;6.97;4.90;;;;;;;;;;5014661;28;20248;-51
2023/09/19 00:28:01;;;;;;;5.20;4.60;;;;;;;;;;5014283;28;20198;-51
2023/09/19 00:30:27;;;;;;;7.07;4.70;;;;;;;;;;5014232;28;20208;-51
2023/09/19 00:32:54;;;;;;;6.10;4.70;;;;;;;;;;5014114;28;20194;-51
2023/09/19 00:35:20;;;;;;;6.27;4.63;;;;;;;;;;5014363;28;20217;-52
2023/09/19 00:37:48;;;;;;;5.20;4.67;;;;;;;;;;5012740;28;20649;-51
2023/09/19 00:40:15;;;;;;;7.93;5.03;;;;;;;;;;5013935;28;20684;-51
2023/09/19 00:42:41;;;;;;;9.27;4.73;;;;;;;;;;5014002;28;20585;-51
2023/09/19 00:45:10;;;;;;;6.70;5.27;;;;;;;;;;5013776;28;20258;-51
2023/09/19 00:47:37;;;;;;;6.80;5.20;;;;;;;;;;5014021;28;20240;-51
2023/09/19 00:50:04;;;;;;;7.43;4.73;;;;;;;;;;5013961;28;20267;-51
2023/09/19 00:52:32;;;;;;;8.23;4.93;;;;;;;;;;5013594;28;20205;-52
2023/09/19 00:55:00;;;;;;;6.90;4.60;;;;;;;;;;5013901;28;20206;-51
2023/09/19 00:57:26;;;;;;;8.60;4.43;;;;;;;;;;5013787;28;20640;-51
2023/09/19 00:59:54;;;;;;;7.13;4.47;;;;;;;;;;5013521;28;20213;-52
2023/09/19 01:02:21;;;;;;;6.53;4.60;;;;;;;;;;5013650;28;20296;-52
2023/09/19 01:04:48;;;;;;;8.77;4.70;;;;;;;;;;5013665;28;20578;-52
2023/09/19 01:07:14;;;;;;;8.37;4.90;;;;;;;;;;5013499;28;20189;-51
2023/09/19 01:09:41;;;;;;;7.67;4.83;;;;;;;;;;5013491;28;20286;-51
2023/09/19 01:12:09;;;;;;;6.13;4.40;;;;;;;;;;5013342;28;20233;-51
2023/09/19 01:14:40;;;;;;;6.90;4.50;;;;;;;;;;5013557;28;20201;-51
2023/09/19 01:17:08;;;;;;;6.00;4.53;;;;;;;;;;5013268;28;20201;-51
2023/09/19 01:19:58;;;;;;;7.53;4.60;;;;;;;;;;5013514;28;20204;-51
2023/09/19 01:22:27;;;;;;;7.77;4.63;;;;;;;;;;4997964;28;20243;-52
2023/09/19 01:25:08;;;;;;;6.10;4.00;;;;;;;;;;5013123;28;20198;-52
2023/09/19 01:27:48;;;;;;;5.20;3.80;;;;;;;;;;5013617;28;20545;-51
2023/09/19 01:30:18;;;;;;;6.60;4.10;;;;;;;;;;5010857;28;20209;-52
2023/09/19 01:32:46;;;;;;;6.87;3.93;;;;;;;;;;5013346;28;20544;-52
2023/09/19 01:35:13;;;;;;;8.77;4.10;;;;;;;;;;5013196;28;20218;-52
2023/09/19 01:37:39;;;;;;;5.63;3.97;;;;;;;;;;5013239;28;20237;-52
2023/09/19 01:40:11;;;;;;;7.53;3.63;;;;;;;;;;5013325;28;20683;-52
2023/09/19 01:42:42;;;;;;;8.30;4.70;;;;;;;;;;5013227;28;20229;-52
2023/09/19 01:45:12;;;;;;;5.33;3.50;;;;;;;;;;5013083;28;20855;-52
2023/09/19 01:47:46;;;;;;;8.03;4.33;;;;;;;;;;5013055;28;20284;-52
2023/09/19 01:50:15;;;;;;;9.23;4.03;;;;;;;;;;5013026;28;20205;-52
2023/09/19 01:52:46;;;;;;;6.57;3.83;;;;;;;;;;5013036;28;20197;-52
2023/09/19 01:55:14;;;;;;;8.63;3.50;;;;;;;;;;5012808;28;20201;-52
2023/09/19 01:57:43;;;;;;;6.47;3.77;;;;;;;;;;5013233;28;20202;-52
2023/09/19 02:00:11;;;;;;;9.27;3.83;;;;;;;;;;5012851;28;20252;-52
2023/09/19 02:02:40;;;;;;;7.03;3.57;;;;;;;;;;5012796;28;20768;-52
2023/09/19 02:05:06;;;;;;;8.83;3.40;;;;;;;;;;5012065;28;20208;-51
2023/09/19 02:07:32;;;;;;;6.53;3.30;;;;;;;;;;5012912;28;20648;-51
2023/09/19 02:10:05;;;;;;;6.40;3.43;;;;;;;;;;5012514;28;20292;-51
2023/09/19 02:12:32;;;;;;;9.00;3.43;;;;;;;;;;5012861;28;20201;-51
2023/09/19 02:14:59;;;;;;;8.17;3.23;;;;;;;;;;5012529;28;20226;-52
2023/09/19 02:17:26;;;;;;;6.73;3.20;;;;;;;;;;5012505;28;20197;-52
2023/09/19 02:19:53;;;;;;;5.40;3.07;;;;;;;;;;5012438;28;20227;-51
2023/09/19 02:22:19;;;;;;;7.10;3.20;;;;;;;;;;5012692;28;20662;-51
2023/09/19 02:24:47;;;;;;;6.63;3.30;;;;;;;;;;5012639;28;20296;-51
2023/09/19 02:27:15;;;;;;;9.97;3.07;;;;;;;;;;5012372;28;20782;-52
2023/09/19 02:29:41;;;;;;;7.80;3.17;;;;;;;;;;5012559;28;20229;-51
2023/09/19 02:32:09;;;;;;;5.63;2.90;;;;;;;;;;5012187;28;20229;-51
2023/09/19 02:34:36;;;;;;;5.70;3.00;;;;;;;;;;5012458;28;20209;-52
2023/09/19 02:37:04;;;;;;;9.17;3.17;;;;;;;;;;5012327;28;20210;-51
2023/09/19 02:39:31;;;;;;;7.40;2.70;;;;;;;;;;5012451;28;20212;-52
2023/09/19 02:41:57;;;;;;;4.67;2.90;;;;;;;;;;5011939;28;20270;-51
2023/09/19 02:44:23;;;;;;;7.53;3.00;;;;;;;;;;5012360;28;20202;-51
2023/09/19 02:46:49;;;;;;;9.53;3.43;;;;;;;;;;5012215;28;20293;-51
2023/09/19 02:49:17;;;;;;;7.30;2.70;;;;;;;;;;5012040;28;20209;-51
2023/09/19 02:51:43;;;;;;;6.37;2.77;;;;;;;;;;5012077;28;20200;-51
2023/09/19 02:54:11;;;;;;;9.67;3.23;;;;;;;;;;5011906;28;20201;-51
2023/09/19 02:56:37;;;;;;;6.40;2.93;;;;;;;;;;5011885;28;20209;-51
2023/09/19 02:59:03;;;;;;;8.27;3.00;;;;;;;;;;5012108;28;20625;-50
2023/09/19 03:01:29;;;;;;;8.73;3.13;;;;;;;;;;5011710;28;20704;-51
2023/09/19 03:03:56;;;;;;;5.80;2.90;;;;;;;;;;5011733;28;20698;-51
2023/09/19 03:06:23;;;;;;;8.97;2.73;;;;;;;;;;5011754;28;20562;-51
2023/09/19 03:08:51;;;;;;;7.97;2.90;;;;;;;;;;5011684;28;20205;-51
2023/09/19 03:11:21;;;;;;;11.10;2.80;;;;;;;;;;5011851;28;20719;-50
2023/09/19 03:13:51;;;;;;;5.87;2.80;;;;;;;;;;5012020;28;20221;-51
2023/09/19 03:16:18;;;;;;;4.63;2.70;;;;;;;;;;5011615;28;20251;-51
2023/09/19 03:18:45;;;;;;;5.97;2.83;;;;;;;;;;5012032;28;20273;-50
2023/09/19 03:21:11;;;;;;;9.57;2.93;;;;;;;;;;5011589;28;20221;-51
2023/09/19 03:23:38;;;;;;;11.73;2.90;;;;;;;;;;5011651;28;20201;-51
2023/09/19 03:26:05;;;;;;;10.17;2.87;;;;;;;;;;5011703;28;20546;-51
2023/09/19 03:28:34;;;;;;;10.77;3.10;;;;;;;;;;5011762;28;20201;-53
2023/09/19 03:31:01;;;;;;;13.60;3.63;;;;;;;;;;5011390;28;20672;-51
2023/09/19 03:33:27;;;;;;;8.37;2.90;;;;;;;;;;5011714;28;20288;-51
2023/09/19 03:35:53;;;;;;;7.03;3.00;;;;;;;;;;5011407;28;20228;-52
2023/09/19 03:38:19;;;;;;;7.23;3.03;;;;;;;;;;5011376;28;20291;-51
2023/09/19 03:40:45;;;;;;;6.67;2.83;;;;;;;;;;5011331;28;20719;-50
2023/09/19 03:43:11;;;;;;;8.23;2.87;;;;;;;;;;5011447;28;20232;-51
2023/09/19 03:45:40;;;;;;;7.87;3.30;;;;;;;;;;5011345;28;20228;-50
2023/09/19 03:48:08;;;;;;;9.43;3.07;;;;;;;;;;5011369;28;20205;-51
2023/09/19 03:50:34;;;;;;;7.40;2.90;;;;;;;;;;5011572;28;20261;-51
2023/09/19 03:53:00;;;;;;;7.10;2.97;;;;;;;;;;5011358;28;20593;-51
2023/09/19 03:55:26;;;;;;;8.80;2.93;;;;;;;;;;5011278;28;20201;-51
2023/09/19 03:57:52;;;;;;;8.63;2.80;;;;;;;;;;5011244;28;20300;-51
2023/09/19 04:00:21;;;;;;;10.20;3.27;;;;;;;;;;5011271;28;20711;-51
2023/09/19 04:02:48;;;;;;;5.13;3.20;;;;;;;;;;5011383;28;20237;-51
2023/09/19 04:05:14;;;;;;;12.47;3.43;;;;;;;;;;5011110;28;20622;-51
2023/09/19 04:07:40;;;;;;;7.87;3.23;;;;;;;;;;5011127;28;20190;-51
2023/09/19 04:10:09;;;;;;;8.63;2.93;;;;;;;;;;5011079;28;20204;-51
2023/09/19 04:12:35;;;;;;;6.13;3.00;;;;;;;;;;5011394;28;20201;-51
2023/09/19 04:15:01;;;;;;;7.87;2.83;;;;;;;;;;5011174;28;20256;-51
2023/09/19 04:17:27;;;;;;;6.83;2.93;;;;;;;;;;5011219;28;20212;-51
2023/09/19 04:19:54;;;;;;;7.30;3.03;;;;;;;;;;5010988;28;20284;-51
2023/09/19 04:22:20;;;;;;;8.57;3.20;;;;;;;;;;5011012;28;20704;-51
2023/09/19 04:24:46;;;;;;;5.10;3.03;;;;;;;;;;5011054;28;20292;-51
2023/09/19 04:27:14;;;;;;;7.37;3.97;;;;;;;;;;5012187;28;20474;-51
2023/09/19 04:29:41;;;;;;;9.93;3.13;;;;;;;;;;5014599;28;20303;-51
2023/09/19 04:32:07;;;;;;;8.80;3.43;;;;;;;;;;5014462;28;20256;-52
2023/09/19 04:34:34;;;;;;;9.53;3.47;;;;;;;;;;5014789;28;20201;-52
2023/09/19 04:37:03;;;;;;;10.30;3.50;;;;;;;;;;5014500;28;20209;-51
2023/09/19 04:39:29;;;;;;;7.50;3.20;;;;;;;;;;5014330;28;20202;-51
2023/09/19 04:41:56;;;;;;;8.17;3.30;;;;;;;;;;5014111;28;20233;-51
2023/09/19 04:44:22;;;;;;;8.57;3.40;;;;;;;;;;5014369;28;20277;-52
2023/09/19 04:46:48;;;;;;;10.27;3.40;;;;;;;;;;5014050;28;20201;-51
2023/09/19 04:49:15;;;;;;;10.30;3.70;;;;;;;;;;5014044;28;20237;-52
2023/09/19 04:51:42;;;;;;;9.17;3.70;;;;;;;;;;5014248;28;20606;-52
2023/09/19 04:54:10;;;;;;;9.67;2.90;;;;;;;;;;5014064;28;20205;-51
2023/09/19 04:56:36;;;;;;;7.63;3.30;;;;;;;;;;5014200;28;20217;-51
2023/09/19 04:59:02;;;;;;;7.70;2.80;;;;;;;;;;5014109;28;20621;-50
2023/09/19 05:01:28;;;;;;;11.80;3.57;;;;;;;;;;5013852;28;20209;-51
2023/09/19 05:03:54;;;;;;;10.70;3.53;;;;;;;;;;5013981;28;20226;-51
2023/09/19 05:06:21;;;;;;;9.07;3.23;;;;;;;;;;5014062;28;20201;-51
2023/09/19 05:08:50;;;;;;;11.23;3.77;;;;;;;;;;5013826;28;20212;-51
2023/09/19 05:11:18;;;;;;;7.93;3.17;;;;;;;;;;5013335;28;20683;-51
2023/09/19 05:13:44;;;;;;;7.83;3.40;;;;;;;;;;5013313;28;20320;-51
2023/09/19 05:16:11;;;;;;;12.23;4.10;;;;;;;;;;5013159;28;20198;-51
2023/09/19 05:18:37;;;;;;;12.67;3.67;;;;;;;;;;5013258;28;20197;-51
2023/09/19 05:21:03;;;;;;;10.77;3.80;;;;;;;;;;5013597;28;20214;-51
2023/09/19 05:23:29;;;;;;;11.30;4.00;;;;;;;;;;5013420;28;20280;-57
2023/09/19 05:25:58;;;;;;;13.03;4.33;;;;;;;;;;5013162;28;20217;-51
2023/09/19 05:28:25;;;;;;;8.10;3.53;;;;;;;;;;5013328;28;20193;-50
2023/09/19 05:30:53;;;;;;;9.10;4.63;;;;;;;;;;5013119;28;20209;-51
2023/09/19 05:33:19;;;;;;;10.37;4.20;;;;;;;;;;5013263;28;20241;-51
2023/09/19 05:35:47;;;;;;;7.80;3.63;;;;;;;;;;5013020;28;20688;-51
2023/09/19 05:38:13;;;;;;;9.73;3.70;;;;;;;;;;5012142;28;20248;-50
2023/09/19 05:40:42;;;;;;;10.33;4.70;;;;;;;;;;5012743;28;20611;-50
2023/09/19 05:43:08;;;;;;;11.50;4.90;;;;;;;;;;5012967;28;20204;-51
2023/09/19 05:45:36;;;;;;;14.27;4.90;;;;;;;;;;5013231;28;20566;-51
2023/09/19 05:48:08;;;;;;;12.80;4.57;;;;;;;;;;5013264;28;20611;-50
2023/09/19 05:50:34;;;;;;;10.30;4.33;;;;;;;;;;5013270;28;20212;-51
2023/09/19 05:53:00;;;;;;;9.67;3.93;;;;;;;;;;5011663;28;20723;-50
2023/09/19 05:55:26;;;;;;;11.77;4.40;;;;;;;;;;5012798;28;20237;-51
2023/09/19 05:57:52;;;;;;;11.87;4.73;;;;;;;;;;5012617;28;20244;-51
2023/09/19 06:00:22;;;;;;;7.40;4.00;;;;;;;;;;5012705;28;20220;-51
2023/09/19 06:02:51;;;;;;;12.17;4.37;;;;;;;;;;5012794;28;20316;-51
2023/09/19 06:05:17;;;;;;;10.43;4.60;;;;;;;;;;5012759;28;20614;-51
2023/09/19 06:07:44;;;;;;;14.80;3.90;;;;;;;;;;5012596;28;20692;-52
2023/09/19 06:10:10;;;;;;;11.63;3.97;;;;;;;;;;5012614;28;20577;-51
2023/09/19 06:12:38;;;;;;;8.60;3.77;;;;;;;;;;5012678;28;20194;-51
2023/09/19 06:15:08;;;;;;;11.27;3.93;;;;;;;;;;5012516;28;20655;-51
2023/09/19 06:17:37;;;;;;;8.63;3.33;;;;;;;;;;5012540;28;20730;-51
2023/09/19 06:20:12;;;;;;;11.93;3.57;;;;;;;;;;5012493;28;20224;-51
2023/09/19 06:22:38;;;;;;;8.40;3.43;;;;;;;;;;5012328;28;20278;-51
2023/09/19 06:25:04;;;;;;;7.83;2.90;;;;;;;;;;5012219;28;20722;-51
2023/09/19 06:27:30;;;;;;;12.13;3.57;;;;;;;;;;5012271;28;20217;-51
2023/09/19 06:29:56;;;;;;;5.53;2.70;;;;;;;;;;5012220;28;20644;-51
2023/09/19 06:32:27;;;;;;;9.50;3.20;;;;;;;;;;5012082;28;20239;-51
2023/09/19 06:34:57;;;;;;;9.03;3.13;;;;;;;;;;5012038;28;20229;-51
2023/09/19 06:37:27;;;;;;;8.43;3.27;;;;;;;;;;5012098;28;20245;-51
2023/09/19 06:39:53;;;;;;;9.90;3.20;;;;;;;;;;5012019;28;20201;-52
2023/09/19 06:42:19;;;;;;;11.63;3.63;;;;;;;;;;5012017;28;20217;-51
2023/09/19 06:44:46;;;;;;;8.63;3.30;;;;;;;;;;5009937;28;20576;-49
2023/09/19 06:47:11;;;;;;;8.90;2.93;;;;;;;;;;4992042;28;20672;-50
2023/09/19 06:49:37;;;;;;;12.47;3.57;;;;;;;;;;4992084;28;20210;-52
2023/09/19 06:52:04;;;;;;;9.20;3.17;;;;;;;;;;4992203;28;20195;-52
2023/09/19 06:54:34;;;;;;;6.63;2.93;;;;;;;;;;4991865;28;20249;-52
2023/09/19 06:57:00;;;;;;;13.83;2.73;;;;;;;;;;4992336;28;20202;-52
2023/09/19 06:59:26;;;;;;;6.40;2.73;;;;;;;;;;4991990;28;20208;-53
2023/09/19 07:01:52;;;;;;;8.73;2.70;;;;;;;;;;4992039;28;20226;-52
2023/09/19 07:04:22;;;;;;;10.13;3.10;;;;;;;;;;4992084;28;20226;-52
2023/09/19 07:06:49;;;;;;;8.20;3.00;;;;;;;;;;4992234;28;20323;-52
2023/09/19 07:09:15;;;;;;;7.43;2.90;;;;;;;;;;4991781;28;20621;-52
2023/09/19 07:11:43;;;;;;;11.30;2.90;;;;;;;;;;4991937;28;20198;-53
2023/09/19 07:14:11;;;;;;;6.83;2.80;;;;;;;;;;4991840;28;20280;-53
2023/09/19 07:16:38;;;;;;;7.90;2.70;;;;;;;;;;4991867;28;20256;-52
2023/09/19 07:19:04;;;;;;;9.67;2.83;;;;;;;;;;4991947;28;20205;-52
2023/09/19 07:21:32;;;;;;;8.33;2.33;;;;;;;;;;4992230;28;20292;-52
2023/09/19 07:24:00;;;;;;;9.90;2.40;;;;;;;;;;4991727;28;20234;-52
2023/09/19 07:26:27;;;;;;;9.33;3.10;;;;;;;;;;4991740;28;20645;-53
2023/09/19 07:28:56;;;;;;;9.40;3.10;;;;;;;;;;4992577;28;20742;-53
2023/09/19 07:31:22;;;;;;;8.50;2.80;;;;;;;;;;4991923;28;20261;-53
2023/09/19 07:33:49;;;;;;;7.30;2.77;;;;;;;;;;4993030;28;20360;-53
2023/09/19 07:36:16;;;;;;;6.40;2.50;;;;;;;;;;4992062;28;20245;-51
2023/09/19 07:38:42;;;;;;;8.20;2.70;;;;;;;;;;4994133;28;20276;-52
2023/09/19 07:41:11;;;;;;;10.17;3.00;;;;;;;;;;4991850;28;20653;-52
2023/09/19 07:43:40;;;;;;;8.33;2.73;;;;;;;;;;4992359;28;20194;-52
2023/09/19 07:46:08;;;;;;;6.53;3.00;;;;;;;;;;4992879;28;20202;-52
2023/09/19 07:48:35;;;;;;;7.90;3.00;;;;;;;;;;4992150;28;20206;-52
2023/09/19 07:51:06;;;;;;;11.57;2.60;;;;;;;;;;5013605;28;20255;-53
2023/09/19 07:53:34;;;;;;;8.50;2.60;;;;;;;;;;5013018;28;20271;-52
2023/09/19 07:56:04;;;;;;;10.13;2.70;;;;;;;;;;5011233;28;20202;-52
2023/09/19 07:58:31;;;;;;;7.33;2.53;;;;;;;;;;5011705;28;20198;-52
2023/09/19 08:00:57;;;;;;;9.40;2.50;;;;;;;;;;5010821;28;20377;-52
2023/09/19 08:03:24;;;;;;;12.13;2.67;;;;;;;;;;5014491;28;20205;-52
2023/09/19 08:05:51;;;;;;;8.63;2.80;;;;;;;;;;5015245;28;20205;-51
2023/09/19 08:08:21;;;;;;;7.47;2.83;;;;;;;;;;5016445;28;20260;-52
2023/09/19 08:10:52;;;;;;;6.33;2.20;;;;;;;;;;5015923;28;20205;-52
2023/09/19 08:13:19;;;;;;;6.57;2.53;;;;;;;;;;5014230;28;20209;-51
2023/09/19 08:15:45;;;;;;;9.93;2.47;;;;;;;;;;5014576;28;20248;-54
2023/09/19 08:18:12;;;;;;;10.50;2.73;;;;;;;;;;5014695;28;20666;-51
2023/09/19 08:20:42;;;;;;;7.57;2.20;;;;;;;;;;5014793;28;20214;-51
2023/09/19 08:23:08;;;;;;;9.77;3.20;;;;;;;;;;5014254;28;20241;-50
2023/09/19 08:25:34;;;;;;;7.57;2.70;;;;;;;;;;5014601;28;20297;-52
2023/09/19 08:28:03;;;;;;;8.70;2.70;;;;;;;;;;5015615;28;20194;-52
2023/09/19 08:30:30;;;;;;;7.33;2.80;;;;;;;;;;5013888;28;20222;-51
2023/09/19 08:32:58;;;;;;;7.73;2.20;;;;;;;;;;5013851;28;20205;-52
2023/09/19 08:35:24;;;;;;;5.07;2.00;;;;;;;;;;5014033;28;20222;-51
2023/09/19 08:37:51;;;;;;;7.93;2.40;;;;;;;;;;5014230;28;20276;-52
2023/09/19 08:40:18;;;;;;;6.77;2.63;;;;;;;;;;5015158;28;20246;-52
2023/09/19 08:42:50;;;;;;;7.67;2.40;;;;;;;;;;5014502;28;20229;-52
2023/09/19 08:45:17;;;;;;;7.53;2.63;;;;;;;;;;5013616;28;20204;-52
2023/09/19 08:47:46;;;;;;;6.70;2.40;;;;;;;;;;5013757;28;20200;-51
2023/09/19 08:50:18;;;;;;;5.43;2.40;;;;;;;;;;5013532;28;20665;-52
2023/09/19 08:52:47;;;;;;;5.30;2.20;;;;;;;;;;5013645;28;20208;-51
2023/09/19 08:55:21;;;;;;;7.50;2.20;;;;;;;;;;5013730;28;20195;-52
2023/09/19 08:57:49;;;;;;;8.57;2.30;;;;;;;;;;5014157;28;20210;-52
2023/09/19 09:00:20;;;;;;;7.80;2.70;;;;;;;;;;5013435;28;20198;-52
2023/09/19 09:02:47;;;;;;;6.67;2.40;;;;;;;;;;5013711;28;20315;-52
2023/09/19 09:05:15;;;;;;;7.07;2.20;;;;;;;;;;5013430;28;20636;-52
2023/09/19 09:07:41;;;;;;;6.60;2.13;;;;;;;;;;5013586;28;20204;-52
2023/09/19 09:10:08;;;;;;;9.40;2.70;;;;;;;;;;5013108;28;20208;-52
2023/09/19 09:12:37;;;;;;;7.00;2.27;;;;;;;;;;5013546;28;20200;-52
2023/09/19 09:15:03;;;;;;;6.87;2.93;;;;;;;;;;5013235;28;20259;-52
2023/09/19 09:17:33;;;;;;;5.67;2.20;;;;;;;;;;5013204;28;20193;-53
2023/09/19 09:19:59;;;;;;;7.57;2.30;;;;;;;;;;5004474;28;20685;-50
2023/09/19 09:22:25;;;;;;;4.40;2.03;;;;;;;;;;5012510;28;20240;-52
2023/09/19 09:24:53;;;;;;;7.27;2.43;;;;;;;;;;5012686;28;20403;-50
2023/09/19 09:27:20;;;;;;;5.50;2.37;;;;;;;;;;5012853;28;20220;-51
2023/09/19 09:29:51;;;;;;;6.23;2.37;;;;;;;;;;5012631;28;20710;-50
2023/09/19 09:32:18;;;;;;;6.60;2.60;;;;;;;;;;5012647;28;20754;-50
2023/09/19 09:34:44;;;;;;;5.97;2.30;;;;;;;;;;5012609;28;20591;-50
2023/09/19 09:37:14;;;;;;;4.97;2.40;;;;;;;;;;5012089;28;20196;-50
2023/09/19 09:39:40;;;;;;;5.53;2.17;;;;;;;;;;5012603;28;20214;-51
2023/09/19 09:42:09;;;;;;;6.83;2.53;;;;;;;;;;5012941;28;20319;-50
2023/09/19 09:44:35;;;;;;;5.23;2.60;;;;;;;;;;5013167;28;20208;-51
2023/09/19 09:47:27;;;;;;;7.77;2.57;;;;;;;;;;5012394;28;20208;-50
2023/09/19 09:50:06;;;;;;;5.53;2.37;;;;;;;;;;5012105;28;20212;-50
2023/09/19 09:52:44;;;;;;;6.50;2.40;;;;;;;;;;5012529;28;20192;-50
2023/09/19 09:55:10;;;;;;;6.13;2.53;;;;;;;;;;5012024;28;20273;-50
2023/09/19 09:57:36;;;;;;;5.57;2.10;;;;;;;;;;5010509;28;20538;-51
2023/09/19 10:02:44;;;;;;;6.80;2.70;;;;;;;;;;5012488;28;20219;-53
2023/09/19 10:05:32;;;;;;;8.33;2.50;;;;;;;;;;5012436;28;20270;-53
2023/09/19 10:08:12;;;;;;;5.67;2.70;;;;;;;;;;5012607;28;20189;-52
2023/09/19 10:13:07;;;;;;;6.63;2.70;;;;;;;;;;5012373;28;20203;-53
2023/09/19 10:15:35;;;;;;;7.47;2.80;;;;;;;;;;5012393;28;20205;-52
2023/09/19 10:18:05;;;;;;;8.70;2.73;;;;;;;;;;5012104;28;20217;-53
2023/09/19 10:20:36;;;;;;;7.57;2.70;;;;;;;;;;5012215;28;20231;-52
2023/09/19 10:23:09;;;;;;;8.10;2.60;;;;;;;;;;5012229;28;20324;-52
2023/09/19 10:25:36;;;;;;;7.63;2.63;;;;;;;;;;5011766;28;20268;-51
2023/09/19 10:28:03;;;;;;;8.77;2.90;;;;;;;;;;5012040;28;20287;-53
2023/09/19 10:30:30;;;;;;;8.80;2.43;;;;;;;;;;5011778;28;20628;-53
2023/09/19 10:32:58;;;;;;;10.57;2.80;;;;;;;;;;5011893;28;20193;-53
2023/09/19 10:35:26;;;;;;;10.13;2.97;;;;;;;;;;5011642;28;20224;-53
2023/09/19 10:37:52;;;;;;;9.13;3.00;;;;;;;;;;5011879;28;20283;-53
2023/09/19 10:40:18;;;;;;;6.40;2.40;;;;;;;;;;5011562;28;20208;-53
2023/09/19 10:42:46;;;;;;;5.90;2.63;;;;;;;;;;5011293;28;20236;-52
2023/09/19 10:45:13;;;;;;;6.80;2.50;;;;;;;;;;5009057;28;20679;-53
2023/09/19 10:47:39;;;;;;;8.47;2.87;;;;;;;;;;5010944;28;20204;-53
2023/09/19 10:50:12;;;;;;;11.10;3.03;;;;;;;;;;5011111;28;20272;-53
2023/09/19 10:52:41;;;;;;;4.60;2.27;;;;;;;;;;5011064;28;20197;-53
2023/09/19 10:55:09;;;;;;;5.77;2.37;;;;;;;;;;5010962;28;20565;-53
2023/09/19 11:03:49;;;;;;;7.77;2.80;;;;;;;;;;5011274;28;20263;-53
2023/09/19 11:06:17;;;;;;;5.17;2.57;;;;;;;;;;5011205;28;20263;-53
2023/09/19 11:11:57;;;;;;;6.53;2.40;;;;;;;;;;5011450;28;20238;-53
2023/09/19 11:14:30;;;;;;;11.97;2.67;;;;;;;;;;5011086;28;20201;-53
2023/09/19 11:17:17;;;;;;;8.83;2.73;;;;;;;;;;5011236;28;20208;-53
2023/09/19 11:20:02;;;;;;;5.70;2.40;;;;;;;;;;5011176;28;20216;-52
2023/09/19 11:22:50;;;;;;;8.30;2.47;;;;;;;;;;5010948;28;20229;-52
2023/09/19 11:25:50;;;;;;;7.87;2.40;;;;;;;;;;5010910;28;20254;-52
2023/09/19 11:28:31;;;;;;;6.70;2.57;;;;;;;;;;4978525;28;20659;-52
2023/09/19 11:30:58;;;;;;;6.70;2.80;;;;;;;;;;5010977;28;20208;-52
2023/09/19 11:33:28;;;;;;;7.20;2.60;;;;;;;;;;5004772;28;20277;-53
2023/09/19 11:36:01;;;;;;;10.10;2.50;;;;;;;;;;5025307;28;20321;-52
2023/09/19 11:38:42;;;;;;;6.53;2.60;;;;;;;;;;5033909;28;20295;-53
2023/09/19 11:41:29;;;;;;;7.30;2.80;;;;;;;;;;5033144;28;20264;-52
2023/09/19 11:44:16;;;;;;;6.80;2.73;;;;;;;;;;5035018;28;20811;-52
2023/09/19 11:46:52;;;;;;;5.30;2.70;;;;;;;;;;5035286;28;20692;-52
2023/09/19 11:49:23;;;;;;;5.07;2.67;;;;;;;;;;5034965;28;20262;-54
2023/09/19 11:51:54;;;;;;;8.10;3.27;;;;;;;;;;5034521;28;20207;-53
2023/09/19 11:54:24;;;;;;;6.63;2.53;;;;;;;;;;5035029;28;20203;-53
2023/09/19 11:56:51;;;;;;;6.77;2.50;;;;;;;;;;5035120;28;20614;-53
2023/09/19 11:59:28;;;;;;;10.40;2.33;;;;;;;;;;5034968;28;20206;-53
2023/09/19 12:01:57;;;;;;;7.10;2.95;;;;;;;;;;5033346;28;20472;-52
2023/09/19 12:04:33;;;;;;;7.93;2.83;;;;;;;;;;5033998;28;20272;-53
2023/09/19 12:06:59;;;;;;;6.47;2.63;;;;;;;;;;5034994;28;20200;-53
2023/09/19 12:09:27;;;;;;;6.37;2.70;;;;;;;;;;5034207;28;20197;-54
2023/09/19 12:11:53;;;;;;;6.40;2.70;;;;;;;;;;5034453;28;20193;-54
2023/09/19 12:14:26;;;;;;;6.70;2.70;;;;;;;;;;5034085;28;20612;-55
2023/09/19 12:16:55;;;;;;;9.30;3.40;;;;;;;;;;5032530;28;20196;-53
2023/09/19 12:19:22;;;;;;;9.83;3.10;;;;;;;;;;5034122;28;20204;-52
2023/09/19 12:21:57;;;;;;;6.33;2.90;;;;;;;;;;5032219;28;20323;-52
2023/09/19 12:24:26;;;;;;;6.93;2.40;;;;;;;;;;5032346;28;20196;-52
2023/09/19 12:26:52;;;;;;;5.37;2.60;;;;;;;;;;5033994;28;20207;-53
2023/09/19 12:29:23;;;;;;;7.33;2.43;;;;;;;;;;5033844;28;20663;-53
2023/09/19 12:31:51;;;;;;;7.03;2.80;;;;;;;;;;5034182;28;20561;-52
2023/09/19 12:34:19;;;;;;;4.80;2.70;;;;;;;;;;5033883;28;20208;-54
2023/09/19 12:36:45;;;;;;;9.40;2.77;;;;;;;;;;5033690;28;20219;-53
2023/09/19 12:39:11;;;;;;;7.83;2.97;;;;;;;;;;5033336;28;20252;-52
2023/09/19 12:41:38;;;;;;;12.03;3.10;;;;;;;;;;5033323;28;20255;-52
2023/09/19 12:44:09;;;;;;;5.23;2.70;;;;;;;;;;5031501;28;20200;-52
2023/09/19 12:46:35;;;;;;;8.10;3.03;;;;;;;;;;5033344;28;20205;-52
2023/09/19 12:49:18;;;;;;;6.63;2.73;;;;;;;;;;5032656;28;20254;-52
2023/09/19 12:51:45;;;;;;;6.07;2.77;;;;;;;;;;5033078;28;20193;-55
2023/09/19 12:54:11;;;;;;;7.20;2.70;;;;;;;;;;5032955;28;20729;-53
2023/09/19 12:56:44;;;;;;;6.83;2.90;;;;;;;;;;5032910;28;20205;-53
2023/09/19 12:59:13;;;;;;;9.03;2.90;;;;;;;;;;5032808;28;20624;-53
2023/09/19 13:01:43;;;;;;;8.30;3.00;;;;;;;;;;5032711;28;20236;-52
2023/09/19 13:04:15;;;;;;;4.67;2.60;;;;;;;;;;5032905;28;20196;-52
2023/09/19 13:06:43;;;;;;;7.90;2.60;;;;;;;;;;5032838;28;20753;-53
2023/09/19 13:09:10;;;;;;;7.30;2.83;;;;;;;;;;5032995;28;20205;-53
2023/09/19 13:11:40;;;;;;;7.97;2.80;;;;;;;;;;5032659;28;20208;-52
2023/09/19 13:14:17;;;;;;;10.40;3.37;;;;;;;;;;5032730;28;20200;-52
2023/09/19 13:16:55;;;;;;;5.47;2.37;;;;;;;;;;5032674;28;20200;-53
2023/09/19 13:19:35;;;;;;;6.50;2.90;;;;;;;;;;5032556;28;20676;-53
2023/09/19 13:22:03;;;;;;;4.70;2.53;;;;;;;;;;5032495;28;20216;-53
2023/09/19 13:24:30;;;;;;;9.73;2.53;;;;;;;;;;5032395;28;20205;-53
2023/09/19 13:26:56;;;;;;;8.53;2.57;;;;;;;;;;5032445;28;20292;-53
2023/09/19 13:29:22;;;;;;;9.90;2.70;;;;;;;;;;5032213;28;20203;-53
2023/09/19 13:31:49;;;;;;;7.80;2.80;;;;;;;;;;5032429;28;20204;-52
2023/09/19 13:34:17;;;;;;;5.23;2.33;;;;;;;;;;5032228;28;20227;-53
2023/09/19 13:36:43;;;;;;;6.70;2.87;;;;;;;;;;5032106;28;20228;-53
2023/09/19 13:39:13;;;;;;;5.53;2.60;;;;;;;;;;5032004;28;20243;-53
2023/09/19 13:41:39;;;;;;;8.10;3.33;;;;;;;;;;5031898;28;20251;-53
2023/09/19 13:44:05;;;;;;;5.80;2.90;;;;;;;;;;5032105;28;20567;-53
2023/09/19 13:46:34;;;;;;;10.47;3.33;;;;;;;;;;5032082;28;20292;-53
2023/09/19 13:49:03;;;;;;;5.83;2.40;;;;;;;;;;5032235;28;20582;-53
2023/09/19 13:51:30;;;;;;;7.40;3.13;;;;;;;;;;5031848;28;20212;-53
2023/09/19 13:53:56;;;;;;;6.93;2.97;;;;;;;;;;5031900;28;20212;-53
2023/09/19 13:56:24;;;;;;;5.33;2.60;;;;;;;;;;5031763;28;20196;-53
2023/09/19 13:58:51;;;;;;;5.17;2.60;;;;;;;;;;5031618;28;20644;-53
2023/09/19 14:01:17;;;;;;;9.13;3.00;;;;;;;;;;5031162;28;20197;-53
2023/09/19 14:03:46;;;;;;;7.23;2.50;;;;;;;;;;5031508;28;20600;-53
2023/09/19 14:06:12;;;;;;;5.17;2.60;;;;;;;;;;5031699;28;20215;-53
2023/09/19 14:08:38;;;;;;;7.00;3.00;;;;;;;;;;5031364;28;20363;-53
2023/09/19 14:11:06;;;;;;;8.50;2.90;;;;;;;;;;5031997;28;20307;-53
2023/09/19 14:13:34;;;;;;;5.40;2.50;;;;;;;;;;5031393;28;20582;-53
2023/09/19 14:16:04;;;;;;;5.50;2.50;;;;;;;;;;5031462;28;20750;-52
2023/09/19 14:18:30;;;;;;;5.77;2.20;;;;;;;;;;5031279;28;20197;-52
2023/09/19 14:20:56;;;;;;;7.40;2.60;;;;;;;;;;5031306;28;20189;-52
2023/09/19 14:23:23;;;;;;;9.30;2.80;;;;;;;;;;5030997;28;20687;-53
2023/09/19 14:25:49;;;;;;;6.90;2.63;;;;;;;;;;5031323;28;20198;-53
2023/09/19 14:28:15;;;;;;;7.47;2.43;;;;;;;;;;5031221;28;20197;-53
2023/09/19 14:30:42;;;;;;;6.47;2.33;;;;;;;;;;5030929;28;20737;-53
2023/09/19 14:33:08;;;;;;;5.40;2.70;;;;;;;;;;5030978;28;20699;-53
2023/09/19 14:35:38;;;;;;;7.20;2.53;;;;;;;;;;5031153;28;20266;-53
2023/09/19 14:38:04;;;;;;;7.63;2.60;;;;;;;;;;5031150;28;20320;-53
2023/09/19 14:40:30;;;;;;;6.17;2.80;;;;;;;;;;5030782;28;20208;-54
2023/09/19 14:42:57;;;;;;;6.13;2.40;;;;;;;;;;5031120;28;20311;-53
2023/09/19 14:45:25;;;;;;;5.73;2.33;;;;;;;;;;5030799;28;20231;-53
2023/09/19 14:47:54;;;;;;;7.43;2.70;;;;;;;;;;5030996;28;20211;-53
2023/09/19 14:50:22;;;;;;;7.00;2.40;;;;;;;;;;5030820;28;20217;-53
2023/09/19 14:52:50;;;;;;;8.07;2.43;;;;;;;;;;5030824;28;20193;-53
2023/09/19 14:55:16;;;;;;;5.83;2.20;;;;;;;;;;5030808;28;20296;-53
2023/09/19 14:57:44;;;;;;;5.90;2.50;;;;;;;;;;5030984;28;20236;-54
2023/09/19 15:00:11;;;;;;;11.80;2.53;;;;;;;;;;5031169;28;20195;-54
2023/09/19 15:02:38;;;;;;;6.23;2.23;;;;;;;;;;5031180;28;20286;-53